createdAt,value
2023-04-03T00:02:42.080Z,3.55
2023-04-03T00:06:44.382Z,7.40
2023-04-03T00:10:46.727Z,9.55
2023-04-03T00:14:48.834Z,7.55
2023-04-03T00:18:50.950Z,7.13
2023-04-03T00:22:57.235Z,8.20
2023-04-03T00:26:59.251Z,6.25
2023-04-03T00:31:07.484Z,5.35
2023-04-03T00:35:10.728Z,5.43
2023-04-03T00:39:13.463Z,3.95
2023-04-03T00:43:24.535Z,7.43
2023-04-03T00:47:27.168Z,6.60
2023-04-03T00:51:29.438Z,3.72
2023-04-03T00:55:32.697Z,5.43
2023-04-03T00:59:39.673Z,3.90
2023-04-03T01:03:41.809Z,5.37
2023-04-03T01:07:45.591Z,11.70
2023-04-03T01:11:48.331Z,5.05
2023-04-03T01:15:50.885Z,7.15
2023-04-03T01:20:17.014Z,4.00
2023-04-03T01:24:39.531Z,5.38
2023-04-03T01:28:44.163Z,7.85
2023-04-03T01:32:46.315Z,4.35
2023-04-03T01:36:49.105Z,4.00
2023-04-03T01:40:51.603Z,9.73
2023-04-03T01:44:53.841Z,8.65
2023-04-03T01:48:56.098Z,9.50
2023-04-03T01:52:58.585Z,4.22
2023-04-03T01:57:00.958Z,7.93
2023-04-03T02:01:04.075Z,7.07
2023-04-03T02:05:07.328Z,3.58
2023-04-03T02:09:09.598Z,6.53
2023-04-03T02:13:12.141Z,5.80
2023-04-03T02:17:14.504Z,7.50
2023-04-03T02:21:16.600Z,4.70
2023-04-03T02:25:19.357Z,4.78
2023-04-03T02:29:21.840Z,5.47
2023-04-03T02:33:24.020Z,4.97
2023-04-03T02:37:26.612Z,3.63
2023-04-03T02:41:35.864Z,5.88
2023-04-03T02:45:40.822Z,5.88
2023-04-03T02:49:46.068Z,8.55
2023-04-03T02:53:48.185Z,7.85
2023-04-03T02:57:55.049Z,4.72
2023-04-03T03:01:57.728Z,3.97
2023-04-03T03:06:04.971Z,5.68
2023-04-03T03:10:07.368Z,4.30
2023-04-03T03:14:10.679Z,8.73
2023-04-03T03:18:12.817Z,6.43
2023-04-03T03:22:15.226Z,5.80
2023-04-03T03:26:17.425Z,3.83
2023-04-03T03:30:19.555Z,7.53
2023-04-03T03:34:22.035Z,5.63
2023-04-03T03:38:24.451Z,4.15
2023-04-03T03:42:27.193Z,7.68
2023-04-03T03:46:29.646Z,5.88
2023-04-03T03:50:31.828Z,4.03
2023-04-03T03:54:34.203Z,11.70
2023-04-03T03:58:37.103Z,7.18
2023-04-03T04:02:39.890Z,7.07
2023-04-03T04:06:42.308Z,3.63
2023-04-03T04:10:46.323Z,7.47
2023-04-03T04:14:50.744Z,6.70
2023-04-03T04:18:53.100Z,11.13
2023-04-03T04:22:56.263Z,6.47
2023-04-03T04:26:59.339Z,8.00
2023-04-03T04:31:01.742Z,7.70
2023-04-03T04:35:06.030Z,4.90
2023-04-03T04:39:10.800Z,6.35
2023-04-03T04:43:15.567Z,7.40
2023-04-03T04:47:19.697Z,10.38
2023-04-03T04:51:22.057Z,10.20
2023-04-03T04:55:24.325Z,5.85
2023-04-03T04:59:26.664Z,6.57
2023-04-03T05:03:31.582Z,5.03
2023-04-03T05:07:34.512Z,4.45
2023-04-03T05:11:37.681Z,7.60
2023-04-03T05:15:42.137Z,8.45
2023-04-03T05:19:44.460Z,7.00
2023-04-03T05:23:47.916Z,7.40
2023-04-03T05:27:51.010Z,6.53
2023-04-03T05:31:53.534Z,8.70
2023-04-03T05:35:55.995Z,8.18
2023-04-03T05:40:04.119Z,6.95
2023-04-03T05:44:06.898Z,6.70
2023-04-03T05:48:09.450Z,6.15
2023-04-03T05:52:23.728Z,7.43
2023-04-03T05:56:27.362Z,5.78
2023-04-03T06:00:29.900Z,9.32
2023-04-03T06:04:37.523Z,6.82
2023-04-03T06:08:40.441Z,8.88
2023-04-03T06:12:42.856Z,7.07
2023-04-03T06:16:45.885Z,10.32
2023-04-03T06:20:48.270Z,6.22
2023-04-03T06:24:50.352Z,9.00
2023-04-03T06:28:55.344Z,5.05
2023-04-03T06:32:57.726Z,14.77
2023-04-03T06:43:34.578Z,7.25
2023-04-03T06:47:37.066Z,6.50
2023-04-03T06:51:39.446Z,8.45
2023-04-03T06:55:42.515Z,5.50
2023-04-03T06:59:44.664Z,4.60
2023-04-03T07:03:47.505Z,9.88
2023-04-03T07:07:50.854Z,9.68
2023-04-03T07:11:52.907Z,6.60
2023-04-03T07:15:55.455Z,7.88
2023-04-03T07:19:57.711Z,6.30
2023-04-03T07:23:59.885Z,7.20
2023-04-03T07:28:02.025Z,7.35
2023-04-03T07:32:04.651Z,9.50
2023-04-03T07:36:10.529Z,6.05
2023-04-03T07:40:12.910Z,8.43
2023-04-03T07:44:14.944Z,5.88
2023-04-03T07:48:18.679Z,6.85
2023-04-03T07:52:20.730Z,6.50
2023-04-03T07:56:23.818Z,4.10
2023-04-03T08:00:26.019Z,5.65
2023-04-03T08:04:28.294Z,9.30
2023-04-03T08:08:31.387Z,12.38
2023-04-03T08:12:33.712Z,8.73
2023-04-03T08:16:35.808Z,5.82
2023-04-03T08:20:39.722Z,8.40
2023-04-03T08:24:52.382Z,7.32
2023-04-03T08:29:00.485Z,9.05
2023-04-03T08:33:03.432Z,4.10
2023-04-03T08:37:06.321Z,7.55
2023-04-03T08:41:24.366Z,3.00
2023-04-03T08:45:44.581Z,5.95
2023-04-03T08:49:52.641Z,4.90
2023-04-03T08:54:01.799Z,4.95
2023-04-03T08:58:30.485Z,4.57
2023-04-03T09:02:42.737Z,2.42
2023-04-03T09:06:50.882Z,6.22
2023-04-03T09:11:22.997Z,2.50
2023-04-03T09:15:37.788Z,3.38
2023-04-03T09:20:09.861Z,4.53
2023-04-03T09:24:14.691Z,5.60
2023-04-03T09:28:16.780Z,3.42
2023-04-03T09:32:33.634Z,5.78
2023-04-03T09:36:39.764Z,4.15
2023-04-03T09:40:41.718Z,5.10
2023-04-03T09:44:53.726Z,3.97
2023-04-03T09:49:08.898Z,5.32
2023-04-03T09:53:28.987Z,7.50
2023-04-03T09:57:34.221Z,3.42
2023-04-03T10:01:39.223Z,5.60
2023-04-03T10:05:43.262Z,7.28
2023-04-03T10:09:56.582Z,4.90
2023-04-03T10:14:06.240Z,7.25
2023-04-03T10:18:35.112Z,3.42
2023-04-03T10:22:46.663Z,3.47
2023-04-03T10:27:11.746Z,2.22
2023-04-03T10:31:28.663Z,4.47
2023-04-03T10:35:54.409Z,9.90
2023-04-03T10:40:06.086Z,3.92
2023-04-03T10:44:28.069Z,2.58
2023-04-03T10:48:50.138Z,3.42
2023-04-03T10:53:13.852Z,7.93
2023-04-03T10:57:16.034Z,2.03
2023-04-03T11:01:23.543Z,5.28
2023-04-03T11:05:37.943Z,2.50
2023-04-03T11:09:44.776Z,5.03
2023-04-03T11:13:55.931Z,1.98
2023-04-03T11:18:46.064Z,5.45
2023-04-03T11:27:09.454Z,8.98
2023-04-03T11:31:31.066Z,4.80
2023-04-03T11:35:34.969Z,1.50
2023-04-03T11:39:39.584Z,4.80
2023-04-03T11:43:56.410Z,4.65
2023-04-03T11:48:09.949Z,3.88
2023-04-03T11:52:56.668Z,4.55
2023-04-03T12:01:07.020Z,6.72
2023-04-03T12:05:32.782Z,4.50
2023-04-03T12:09:34.976Z,3.15
2023-04-03T12:14:05.985Z,4.90
2023-04-03T12:18:53.071Z,7.95
2023-04-03T12:23:09.667Z,3.45
2023-04-03T12:27:24.347Z,5.45
2023-04-03T12:31:42.110Z,7.55
2023-04-03T12:35:58.497Z,3.53
2023-04-03T12:40:20.540Z,5.55
2023-04-03T12:44:41.625Z,4.32
2023-04-03T12:48:46.583Z,2.08
2023-04-03T12:52:56.295Z,8.00
2023-04-03T12:57:17.819Z,2.65
2023-04-03T13:01:24.472Z,4.85
2023-04-03T13:05:27.564Z,4.25
2023-04-03T13:09:33.534Z,10.15
2023-04-03T13:13:36.745Z,3.88
2023-04-03T13:17:43.612Z,3.75
2023-04-03T13:21:46.458Z,7.53
2023-04-03T13:25:50.559Z,13.57
2023-04-03T13:30:00.288Z,11.80
2023-04-03T13:34:17.125Z,9.27
2023-04-03T13:38:19.208Z,6.93
2023-04-03T13:42:27.836Z,4.78
2023-04-03T13:46:30.094Z,4.88
2023-04-03T13:50:32.170Z,7.90
2023-04-03T13:54:39.640Z,4.60
2023-04-03T13:58:55.856Z,6.70
2023-04-03T14:02:58.573Z,5.43
2023-04-03T14:07:00.730Z,5.18
2023-04-03T14:11:03.219Z,2.40
2023-04-03T14:15:16.702Z,7.10
2023-04-03T14:19:25.705Z,2.15
2023-04-03T14:23:27.771Z,6.30
2023-04-03T14:27:35.281Z,16.25
2023-04-03T14:31:37.411Z,2.17
2023-04-03T14:35:39.616Z,7.13
2023-04-03T14:39:43.063Z,9.02
2023-04-03T14:43:46.701Z,2.65
2023-04-03T14:47:51.512Z,4.25
2023-04-03T14:51:53.745Z,3.97
2023-04-03T14:55:56.080Z,2.92
2023-04-03T14:59:58.859Z,4.03
2023-04-03T15:04:01.126Z,3.47
2023-04-03T15:08:03.190Z,4.55
2023-04-03T15:12:05.383Z,10.00
2023-04-03T15:16:16.111Z,4.30
2023-04-03T15:20:21.882Z,2.72
2023-04-03T15:24:23.975Z,4.95
2023-04-03T15:28:34.645Z,8.80
2023-04-03T15:32:37.157Z,8.40
2023-04-03T15:36:39.278Z,12.98
2023-04-03T15:40:41.724Z,10.95
2023-04-03T15:44:43.768Z,13.13
2023-04-03T15:48:45.963Z,6.75
2023-04-03T15:52:48.177Z,5.68
2023-04-03T15:56:50.573Z,11.98
2023-04-03T16:00:52.841Z,8.80
2023-04-03T16:04:56.368Z,15.55
2023-04-03T16:08:59.072Z,5.25
2023-04-03T16:13:01.070Z,7.55
2023-04-03T16:17:03.349Z,6.82
2023-04-03T16:21:08.931Z,7.47
2023-04-03T16:25:12.312Z,5.00
2023-04-03T16:29:14.718Z,15.23
2023-04-03T16:33:17.767Z,24.27
2023-04-03T16:37:20.163Z,22.15
2023-04-03T16:41:22.670Z,12.18
2023-04-03T16:45:24.894Z,10.23
2023-04-03T16:49:31.218Z,8.98
2023-04-03T16:53:33.474Z,18.52
2023-04-03T16:57:35.602Z,9.02
2023-04-03T17:01:37.859Z,15.57
2023-04-03T17:05:40.280Z,11.98
2023-04-03T17:09:42.616Z,11.18
2023-04-03T17:13:44.933Z,16.70
2023-04-03T17:17:49.049Z,15.27
2023-04-03T17:21:52.521Z,13.35
2023-04-03T17:25:55.920Z,10.15
2023-04-03T17:29:58.656Z,8.48
2023-04-03T17:34:01.846Z,11.00
2023-04-03T17:38:04.811Z,12.55
2023-04-03T17:42:06.992Z,12.75
2023-04-03T17:46:10.814Z,15.10
2023-04-03T17:50:16.045Z,17.92
2023-04-03T17:54:18.456Z,10.20
2023-04-03T17:58:20.703Z,16.00
2023-04-03T18:02:23.195Z,13.57
2023-04-03T18:06:32.486Z,10.32
2023-04-03T18:10:37.415Z,12.35
2023-04-03T18:14:41.038Z,11.68
2023-04-03T18:18:43.619Z,13.20
2023-04-03T18:22:46.023Z,15.85
2023-04-03T18:26:53.704Z,16.25
2023-04-03T18:30:56.025Z,7.95
2023-04-03T18:35:00.557Z,9.00
2023-04-03T18:39:03.789Z,6.47
2023-04-03T18:43:06.562Z,8.85
2023-04-03T18:47:09.149Z,12.40
2023-04-03T18:51:12.370Z,11.55
2023-04-03T18:55:16.300Z,11.45
2023-04-03T18:59:18.742Z,11.48
2023-04-03T19:03:21.390Z,15.48
2023-04-03T19:07:23.793Z,11.75
2023-04-03T19:11:29.573Z,13.82
2023-04-03T19:15:35.153Z,16.48
2023-04-03T19:19:37.412Z,15.82
2023-04-03T19:23:42.756Z,16.90
2023-04-03T19:27:45.285Z,13.10
2023-04-03T19:31:47.621Z,13.50
2023-04-03T19:35:49.741Z,10.45
2023-04-03T19:39:51.802Z,11.00
2023-04-03T19:43:56.003Z,15.77
2023-04-03T19:48:01.428Z,15.93
2023-04-03T19:52:04.847Z,18.35
2023-04-03T19:56:07.432Z,18.30
2023-04-03T20:00:10.340Z,18.92
2023-04-03T20:04:16.016Z,19.05
2023-04-03T20:08:18.957Z,20.70
2023-04-03T20:12:21.174Z,17.25
2023-04-03T20:16:25.418Z,16.20
2023-04-03T20:20:28.653Z,16.10
2023-04-03T20:24:31.396Z,13.60
2023-04-03T20:28:34.125Z,16.70
2023-04-03T20:32:36.141Z,13.63
2023-04-03T20:36:38.773Z,16.52
2023-04-03T20:40:40.932Z,16.55
2023-04-03T20:44:45.946Z,16.10
2023-04-03T20:48:48.198Z,17.38
2023-04-03T20:52:50.314Z,13.75
2023-04-03T20:56:52.869Z,13.55
2023-04-03T21:00:56.648Z,11.40
2023-04-03T21:04:58.980Z,10.30
2023-04-03T21:09:39.030Z,16.42
2023-04-03T21:14:19.338Z,11.82
2023-04-03T21:18:57.301Z,12.02
2023-04-03T21:22:59.360Z,11.45
2023-04-03T21:27:03.005Z,11.23
2023-04-03T21:31:06.437Z,10.68
2023-04-03T21:35:09.507Z,13.38
2023-04-03T21:39:12.251Z,13.18
2023-04-03T21:43:14.469Z,11.32
2023-04-03T21:47:16.852Z,18.50
2023-04-03T21:51:18.880Z,16.80
2023-04-03T21:55:20.916Z,16.33
2023-04-03T21:59:23.255Z,27.83
2023-04-03T22:03:25.616Z,28.67
2023-04-03T22:07:27.799Z,29.50
2023-04-03T22:11:30.378Z,29.98
2023-04-03T22:15:36.834Z,21.80
2023-04-03T22:19:39.073Z,25.65
2023-04-03T22:23:41.262Z,31.27
2023-04-03T22:27:43.233Z,27.98
2023-04-03T22:31:45.357Z,16.83
2023-04-03T22:35:48.717Z,15.68
2023-04-03T22:39:50.958Z,17.40
2023-04-03T22:43:52.948Z,21.25
2023-04-03T22:47:58.692Z,20.27
2023-04-03T22:52:00.982Z,15.43
2023-04-03T22:56:05.684Z,11.75
2023-04-03T23:00:08.424Z,15.02
2023-04-03T23:04:10.520Z,17.15
2023-04-03T23:08:12.648Z,19.13
2023-04-03T23:12:14.479Z,21.23
2023-04-03T23:16:17.351Z,11.75
2023-04-03T23:20:19.599Z,15.35
2023-04-03T23:24:22.688Z,17.08
2023-04-03T23:28:25.428Z,10.45
2023-04-03T23:32:27.515Z,13.40
2023-04-03T23:36:29.552Z,10.50
2023-04-03T23:40:31.650Z,14.88
2023-04-03T23:44:33.377Z,11.10
2023-04-03T23:48:35.485Z,10.45
2023-04-03T23:52:37.534Z,16.27
2023-04-03T23:56:39.555Z,13.20
